sensor_id;sensor_type;location;lat;lon;timestamp;pressure;altitude;pressure_sealevel;temperature;humidity
75039;BME280;63609;49.992;14.512;2023-05-03T00:03:31;98885.19;;;8.80;53.84
75039;BME280;63609;49.992;14.512;2023-05-03T00:06:16;98874.41;;;9.04;52.57
75039;BME280;63609;49.992;14.512;2023-05-03T00:08:44;98887.63;;;8.83;53.08
75039;BME280;63609;49.992;14.512;2023-05-03T00:11:11;98884.09;;;9.05;52.21
75039;BME280;63609;49.992;14.512;2023-05-03T00:13:38;98884.28;;;9.58;51.51
75039;BME280;63609;49.992;14.512;2023-05-03T00:16:05;98882.38;;;9.15;51.63
75039;BME280;63609;49.992;14.512;2023-05-03T00:18:32;98880.84;;;9.02;51.90
75039;BME280;63609;49.992;14.512;2023-05-03T00:20:59;98873.69;;;9.13;51.27
75039;BME280;63609;49.992;14.512;2023-05-03T00:23:27;98885.69;;;8.97;51.39
75039;BME280;63609;49.992;14.512;2023-05-03T00:25:56;98878.66;;;9.18;51.12
75039;BME280;63609;49.992;14.512;2023-05-03T00:28:24;98879.22;;;9.44;50.65
75039;BME280;63609;49.992;14.512;2023-05-03T00:30:52;98879.13;;;9.23;51.12
75039;BME280;63609;49.992;14.512;2023-05-03T00:33:19;98876.22;;;9.26;50.98
75039;BME280;63609;49.992;14.512;2023-05-03T00:35:47;98880.72;;;9.26;51.00
75039;BME280;63609;49.992;14.512;2023-05-03T00:38:15;98878.34;;;9.43;50.82
75039;BME280;63609;49.992;14.512;2023-05-03T00:40:42;98877.59;;;9.64;49.70
75039;BME280;63609;49.992;14.512;2023-05-03T00:43:12;98878.41;;;9.10;51.02
75039;BME280;63609;49.992;14.512;2023-05-03T00:45:39;98879.25;;;9.33;50.72
75039;BME280;63609;49.992;14.512;2023-05-03T00:48:07;98877.16;;;9.36;50.74
75039;BME280;63609;49.992;14.512;2023-05-03T00:50:35;98877.16;;;9.36;50.66
75039;BME280;63609;49.992;14.512;2023-05-03T00:53:03;98885.50;;;9.54;50.40
75039;BME280;63609;49.992;14.512;2023-05-03T00:55:30;98890.16;;;9.30;50.97
75039;BME280;63609;49.992;14.512;2023-05-03T00:57:58;98884.56;;;9.33;51.02
75039;BME280;63609;49.992;14.512;2023-05-03T01:00:25;98885.59;;;9.64;50.60
75039;BME280;63609;49.992;14.512;2023-05-03T01:02:54;98888.59;;;9.70;49.77
75039;BME280;63609;49.992;14.512;2023-05-03T01:05:26;98896.81;;;9.24;50.90
75039;BME280;63609;49.992;14.512;2023-05-03T01:08:00;98892.06;;;8.83;52.36
75039;BME280;63609;49.992;14.512;2023-05-03T01:15:56;98885.81;;;9.17;51.53
75039;BME280;63609;49.992;14.512;2023-05-03T01:18:30;98891.06;;;9.62;50.41
75039;BME280;63609;49.992;14.512;2023-05-03T01:21:01;98888.19;;;9.32;51.29
75039;BME280;63609;49.992;14.512;2023-05-03T01:26:24;98889.69;;;8.91;51.99
75039;BME280;63609;49.992;14.512;2023-05-03T01:28:53;98896.22;;;9.20;51.89
75039;BME280;63609;49.992;14.512;2023-05-03T01:31:46;98892.09;;;9.28;51.45
75039;BME280;63609;49.992;14.512;2023-05-03T01:37:09;98890.47;;;9.59;51.31
75039;BME280;63609;49.992;14.512;2023-05-03T01:39:49;98893.13;;;9.59;50.55
75039;BME280;63609;49.992;14.512;2023-05-03T01:42:18;98897.91;;;9.76;50.55
75039;BME280;63609;49.992;14.512;2023-05-03T01:44:46;98899.06;;;9.62;50.75
75039;BME280;63609;49.992;14.512;2023-05-03T01:47:14;98897.78;;;9.77;50.54
75039;BME280;63609;49.992;14.512;2023-05-03T01:49:41;98891.84;;;9.74;50.34
75039;BME280;63609;49.992;14.512;2023-05-03T01:52:07;98886.59;;;9.51;50.98
75039;BME280;63609;49.992;14.512;2023-05-03T01:54:36;98894.16;;;9.24;51.55
75039;BME280;63609;49.992;14.512;2023-05-03T01:57:06;98891.81;;;8.64;52.86
75039;BME280;63609;49.992;14.512;2023-05-03T01:59:33;98896.09;;;9.00;52.58
75039;BME280;63609;49.992;14.512;2023-05-03T02:02:00;98900.78;;;8.74;52.68
75039;BME280;63609;49.992;14.512;2023-05-03T02:04:27;98900.50;;;8.66;52.47
75039;BME280;63609;49.992;14.512;2023-05-03T02:06:57;98890.28;;;8.95;51.85
75039;BME280;63609;49.992;14.512;2023-05-03T02:09:27;98895.13;;;9.23;51.27
75039;BME280;63609;49.992;14.512;2023-05-03T02:11:54;98909.53;;;8.87;52.05
75039;BME280;63609;49.992;14.512;2023-05-03T02:14:21;98898.75;;;8.88;51.25
75039;BME280;63609;49.992;14.512;2023-05-03T02:16:48;98904.78;;;9.13;51.03
75039;BME280;63609;49.992;14.512;2023-05-03T02:19:15;98899.78;;;8.64;52.86
75039;BME280;63609;49.992;14.512;2023-05-03T02:21:42;98904.78;;;9.13;51.04
75039;BME280;63609;49.992;14.512;2023-05-03T02:24:09;98908.91;;;8.72;52.39
75039;BME280;63609;49.992;14.512;2023-05-03T02:26:36;98910.50;;;8.40;52.51
75039;BME280;63609;49.992;14.512;2023-05-03T02:29:03;98911.56;;;8.37;51.94
75039;BME280;63609;49.992;14.512;2023-05-03T02:31:33;98909.78;;;8.49;51.36
75039;BME280;63609;49.992;14.512;2023-05-03T02:34:00;98909.06;;;8.47;50.38
75039;BME280;63609;49.992;14.512;2023-05-03T02:36:27;98915.22;;;8.47;50.38
75039;BME280;63609;49.992;14.512;2023-05-03T02:38:56;98920.53;;;8.47;49.95
75039;BME280;63609;49.992;14.512;2023-05-03T02:41:22;98912.97;;;8.65;49.64
75039;BME280;63609;49.992;14.512;2023-05-03T02:43:50;98918.38;;;8.87;48.79
75039;BME280;63609;49.992;14.512;2023-05-03T02:46:17;98910.09;;;8.79;48.49
75039;BME280;63609;49.992;14.512;2023-05-03T02:48:44;98915.72;;;8.17;50.17
75039;BME280;63609;49.992;14.512;2023-05-03T02:51:11;98907.09;;;8.38;48.51
75039;BME280;63609;49.992;14.512;2023-05-03T02:53:38;98913.16;;;8.40;48.36
75039;BME280;63609;49.992;14.512;2023-05-03T02:56:05;98920.75;;;8.33;48.11
75039;BME280;63609;49.992;14.512;2023-05-03T02:58:32;98913.63;;;8.69;47.56
75039;BME280;63609;49.992;14.512;2023-05-03T03:01:01;98919.78;;;8.80;47.83
75039;BME280;63609;49.992;14.512;2023-05-03T03:03:29;98923.91;;;8.38;48.03
75039;BME280;63609;49.992;14.512;2023-05-03T03:05:57;98924.25;;;8.22;48.48
75039;BME280;63609;49.992;14.512;2023-05-03T03:08:24;98925.75;;;8.49;47.67
75039;BME280;63609;49.992;14.512;2023-05-03T03:10:53;98921.81;;;8.66;47.33
75039;BME280;63609;49.992;14.512;2023-05-03T03:13:20;98942.13;;;8.55;47.06
75039;BME280;63609;49.992;14.512;2023-05-03T03:15:51;98942.66;;;8.37;47.87
75039;BME280;63609;49.992;14.512;2023-05-03T03:18:18;98931.78;;;8.40;47.24
75039;BME280;63609;49.992;14.512;2023-05-03T03:20:46;98928.00;;;8.31;47.19
75039;BME280;63609;49.992;14.512;2023-05-03T03:23:13;98935.44;;;8.15;47.02
75039;BME280;63609;49.992;14.512;2023-05-03T03:25:41;98934.19;;;8.08;47.33
75039;BME280;63609;49.992;14.512;2023-05-03T03:28:09;98939.97;;;8.25;46.87
75039;BME280;63609;49.992;14.512;2023-05-03T03:30:36;98936.50;;;8.36;46.57
75039;BME280;63609;49.992;14.512;2023-05-03T03:33:14;98936.28;;;8.50;46.92
75039;BME280;63609;49.992;14.512;2023-05-03T03:35:41;98941.72;;;8.49;47.19
75039;BME280;63609;49.992;14.512;2023-05-03T03:38:10;98941.94;;;8.35;47.09
75039;BME280;63609;49.992;14.512;2023-05-03T03:40:49;98942.91;;;8.45;47.20
75039;BME280;63609;49.992;14.512;2023-05-03T03:43:17;98945.16;;;8.27;47.25
75039;BME280;63609;49.992;14.512;2023-05-03T03:45:45;98941.53;;;8.28;46.87
75039;BME280;63609;49.992;14.512;2023-05-03T03:48:14;98954.75;;;8.06;47.48
75039;BME280;63609;49.992;14.512;2023-05-03T03:50:41;98949.47;;;8.17;47.27
75039;BME280;63609;49.992;14.512;2023-05-03T03:53:10;98946.47;;;8.21;47.25
75039;BME280;63609;49.992;14.512;2023-05-03T03:55:39;98946.59;;;8.20;47.12
75039;BME280;63609;49.992;14.512;2023-05-03T03:58:06;98951.34;;;8.04;47.35
75039;BME280;63609;49.992;14.512;2023-05-03T04:00:35;98954.16;;;8.13;46.52
75039;BME280;63609;49.992;14.512;2023-05-03T04:03:09;98952.50;;;7.88;46.98
75039;BME280;63609;49.992;14.512;2023-05-03T04:05:39;98949.06;;;8.10;47.33
75039;BME280;63609;49.992;14.512;2023-05-03T04:08:08;98946.75;;;8.06;46.90
75039;BME280;63609;49.992;14.512;2023-05-03T04:10:37;98948.06;;;8.00;46.69
75039;BME280;63609;49.992;14.512;2023-05-03T04:13:04;98951.19;;;7.94;46.83
75039;BME280;63609;49.992;14.512;2023-05-03T04:15:32;98951.00;;;7.84;47.14
75039;BME280;63609;49.992;14.512;2023-05-03T04:18:02;98959.66;;;7.99;47.03
75039;BME280;63609;49.992;14.512;2023-05-03T04:20:30;98959.63;;;7.88;46.93
75039;BME280;63609;49.992;14.512;2023-05-03T04:22:59;98961.94;;;7.92;47.07
75039;BME280;63609;49.992;14.512;2023-05-03T04:25:28;98965.22;;;7.96;46.42
75039;BME280;63609;49.992;14.512;2023-05-03T04:28:06;98968.59;;;7.98;46.33
75039;BME280;63609;49.992;14.512;2023-05-03T04:30:41;98972.06;;;7.87;47.02
75039;BME280;63609;49.992;14.512;2023-05-03T04:33:12;98975.75;;;7.98;46.83
75039;BME280;63609;49.992;14.512;2023-05-03T04:35:43;98982.88;;;7.97;46.50
75039;BME280;63609;49.992;14.512;2023-05-03T04:38:14;98979.34;;;7.96;46.84
75039;BME280;63609;49.992;14.512;2023-05-03T04:40:40;98979.75;;;8.03;46.68
75039;BME280;63609;49.992;14.512;2023-05-03T04:43:09;98988.22;;;8.08;47.31
75039;BME280;63609;49.992;14.512;2023-05-03T04:45:40;98986.28;;;8.23;46.56
75039;BME280;63609;49.992;14.512;2023-05-03T04:48:12;98994.16;;;8.12;46.80
75039;BME280;63609;49.992;14.512;2023-05-03T04:50:40;98991.31;;;7.78;47.33
75039;BME280;63609;49.992;14.512;2023-05-03T04:53:09;99003.13;;;7.87;47.29
75039;BME280;63609;49.992;14.512;2023-05-03T04:55:40;98996.16;;;7.97;46.71
75039;BME280;63609;49.992;14.512;2023-05-03T04:58:09;98996.69;;;8.26;46.83
75039;BME280;63609;49.992;14.512;2023-05-03T05:00:37;98998.94;;;8.19;46.91
75039;BME280;63609;49.992;14.512;2023-05-03T05:03:11;98998.88;;;8.08;47.62
75039;BME280;63609;49.992;14.512;2023-05-03T05:05:39;99001.50;;;7.84;47.87
75039;BME280;63609;49.992;14.512;2023-05-03T05:08:09;99001.41;;;6.98;49.14
75039;BME280;63609;49.992;14.512;2023-05-03T05:10:42;99000.94;;;7.68;48.20
75039;BME280;63609;49.992;14.512;2023-05-03T05:13:13;99011.69;;;7.54;47.87
75039;BME280;63609;49.992;14.512;2023-05-03T05:15:41;99007.69;;;8.09;46.17
75039;BME280;63609;49.992;14.512;2023-05-03T05:18:10;99011.22;;;8.09;45.55
75039;BME280;63609;49.992;14.512;2023-05-03T05:20:38;99013.53;;;7.90;45.99
75039;BME280;63609;49.992;14.512;2023-05-03T05:23:11;99018.41;;;8.20;44.91
75039;BME280;63609;49.992;14.512;2023-05-03T05:25:40;99020.44;;;8.16;45.49
75039;BME280;63609;49.992;14.512;2023-05-03T05:28:09;99017.63;;;8.31;45.25
75039;BME280;63609;49.992;14.512;2023-05-03T05:30:40;99021.78;;;7.98;44.42
75039;BME280;63609;49.992;14.512;2023-05-03T05:33:14;99020.44;;;8.40;44.75
75039;BME280;63609;49.992;14.512;2023-05-03T05:35:50;99031.69;;;8.44;44.23
75039;BME280;63609;49.992;14.512;2023-05-03T05:38:26;99028.81;;;8.47;43.98
75039;BME280;63609;49.992;14.512;2023-05-03T05:40:58;99023.09;;;8.40;43.61
75039;BME280;63609;49.992;14.512;2023-05-03T05:43:26;99028.19;;;9.02;42.71
75039;BME280;63609;49.992;14.512;2023-05-03T05:45:55;99038.66;;;8.34;44.27
75039;BME280;63609;49.992;14.512;2023-05-03T05:48:23;99042.00;;;8.48;43.43
75039;BME280;63609;49.992;14.512;2023-05-03T05:50:51;99041.09;;;8.61;43.07
75039;BME280;63609;49.992;14.512;2023-05-03T05:53:19;99046.06;;;8.17;43.33
75039;BME280;63609;49.992;14.512;2023-05-03T05:55:53;99043.97;;;8.81;43.01
75039;BME280;63609;49.992;14.512;2023-05-03T05:58:21;99045.16;;;8.77;42.74
75039;BME280;63609;49.992;14.512;2023-05-03T06:00:52;99048.91;;;8.75;42.19
75039;BME280;63609;49.992;14.512;2023-05-03T06:03:25;99059.56;;;8.75;41.56
75039;BME280;63609;49.992;14.512;2023-05-03T06:05:53;99053.91;;;9.26;41.15
75039;BME280;63609;49.992;14.512;2023-05-03T06:08:21;99056.53;;;9.14;41.76
75039;BME280;63609;49.992;14.512;2023-05-03T06:10:48;99058.50;;;9.24;41.35
75039;BME280;63609;49.992;14.512;2023-05-03T06:13:15;99062.63;;;9.39;39.99
75039;BME280;63609;49.992;14.512;2023-05-03T06:15:47;99055.63;;;9.71;39.15
75039;BME280;63609;49.992;14.512;2023-05-03T06:18:14;99061.69;;;9.85;39.74
75039;BME280;63609;49.992;14.512;2023-05-03T06:20:47;99060.81;;;10.06;39.58
75039;BME280;63609;49.992;14.512;2023-05-03T06:23:16;99059.25;;;10.04;39.67
75039;BME280;63609;49.992;14.512;2023-05-03T06:25:54;99063.38;;;9.74;39.85
75039;BME280;63609;49.992;14.512;2023-05-03T06:28:22;99064.06;;;9.43;40.64
75039;BME280;63609;49.992;14.512;2023-05-03T06:30:53;99061.53;;;9.30;39.88
75039;BME280;63609;49.992;14.512;2023-05-03T06:33:20;99067.09;;;9.38;40.19
75039;BME280;63609;49.992;14.512;2023-05-03T06:35:50;99065.06;;;10.09;39.06
75039;BME280;63609;49.992;14.512;2023-05-03T06:38:18;99068.34;;;9.79;38.54
75039;BME280;63609;49.992;14.512;2023-05-03T06:40:46;99074.50;;;9.46;39.94
75039;BME280;63609;49.992;14.512;2023-05-03T06:43:13;99074.53;;;9.57;39.46
75039;BME280;63609;49.992;14.512;2023-05-03T06:45:44;99074.28;;;9.49;38.95
75039;BME280;63609;49.992;14.512;2023-05-03T06:48:11;99075.72;;;9.75;39.44
75039;BME280;63609;49.992;14.512;2023-05-03T06:50:39;99077.69;;;9.85;38.34
75039;BME280;63609;49.992;14.512;2023-05-03T06:53:06;99076.34;;;10.01;38.40
75039;BME280;63609;49.992;14.512;2023-05-03T06:55:33;99082.03;;;9.63;39.33
75039;BME280;63609;49.992;14.512;2023-05-03T06:58:00;99071.88;;;10.02;39.49
75039;BME280;63609;49.992;14.512;2023-05-03T07:00:27;99070.28;;;10.10;38.56
75039;BME280;63609;49.992;14.512;2023-05-03T07:02:55;99079.13;;;10.22;38.61
75039;BME280;63609;49.992;14.512;2023-05-03T07:05:23;99074.16;;;9.73;39.04
75039;BME280;63609;49.992;14.512;2023-05-03T07:07:51;99072.31;;;10.29;37.94
75039;BME280;63609;49.992;14.512;2023-05-03T07:10:18;99067.06;;;10.39;38.12
75039;BME280;63609;49.992;14.512;2023-05-03T07:12:45;99079.56;;;10.38;38.14
75039;BME280;63609;49.992;14.512;2023-05-03T07:15:12;99075.53;;;10.87;37.15
75039;BME280;63609;49.992;14.512;2023-05-03T07:17:43;99070.56;;;10.83;37.77
75039;BME280;63609;49.992;14.512;2023-05-03T07:20:11;99077.66;;;10.93;37.43
75039;BME280;63609;49.992;14.512;2023-05-03T07:22:38;99072.94;;;10.65;37.06
75039;BME280;63609;49.992;14.512;2023-05-03T07:25:05;99075.19;;;11.13;37.53
75039;BME280;63609;49.992;14.512;2023-05-03T07:27:32;99076.31;;;10.67;37.57
75039;BME280;63609;49.992;14.512;2023-05-03T07:30:00;99071.47;;;10.93;36.69
75039;BME280;63609;49.992;14.512;2023-05-03T07:32:31;99067.66;;;10.42;37.20
75039;BME280;63609;49.992;14.512;2023-05-03T07:34:58;99071.25;;;10.64;37.02
75039;BME280;63609;49.992;14.512;2023-05-03T07:37:25;99062.19;;;10.44;37.64
75039;BME280;63609;49.992;14.512;2023-05-03T07:39:53;99069.03;;;10.69;37.11
75039;BME280;63609;49.992;14.512;2023-05-03T07:42:20;99065.84;;;10.43;37.93
75039;BME280;63609;49.992;14.512;2023-05-03T07:44:47;99070.66;;;10.60;38.29
75039;BME280;63609;49.992;14.512;2023-05-03T07:47:14;99066.19;;;11.02;37.55
75039;BME280;63609;49.992;14.512;2023-05-03T07:49:41;99060.03;;;10.70;37.46
75039;BME280;63609;49.992;14.512;2023-05-03T07:52:08;99065.91;;;10.64;37.58
75039;BME280;63609;49.992;14.512;2023-05-03T07:54:35;99070.13;;;10.34;37.93
75039;BME280;63609;49.992;14.512;2023-05-03T07:57:02;99062.38;;;10.63;37.85
75039;BME280;63609;49.992;14.512;2023-05-03T07:59:30;99076.50;;;10.86;38.27
75039;BME280;63609;49.992;14.512;2023-05-03T08:01:56;99064.72;;;10.13;38.95
75039;BME280;63609;49.992;14.512;2023-05-03T08:04:27;99061.91;;;10.90;38.52
75039;BME280;63609;49.992;14.512;2023-05-03T08:06:54;99065.09;;;11.16;36.28
75039;BME280;63609;49.992;14.512;2023-05-03T08:09:23;99062.44;;;10.73;37.03
75039;BME280;63609;49.992;14.512;2023-05-03T08:11:51;99065.53;;;11.21;37.55
75039;BME280;63609;49.992;14.512;2023-05-03T08:14:19;99057.03;;;11.67;36.49
75039;BME280;63609;49.992;14.512;2023-05-03T08:16:46;99061.66;;;11.96;36.04
75039;BME280;63609;49.992;14.512;2023-05-03T08:19:14;99058.94;;;11.77;35.10
75039;BME280;63609;49.992;14.512;2023-05-03T08:21:41;99056.75;;;11.40;36.02
75039;BME280;63609;49.992;14.512;2023-05-03T08:24:08;99056.34;;;11.03;36.89
75039;BME280;63609;49.992;14.512;2023-05-03T08:26:41;99055.06;;;11.39;36.52
75039;BME280;63609;49.992;14.512;2023-05-03T08:29:11;99056.38;;;10.82;37.19
75039;BME280;63609;49.992;14.512;2023-05-03T08:31:41;99056.69;;;11.82;37.15
75039;BME280;63609;49.992;14.512;2023-05-03T08:34:09;99049.38;;;12.34;35.66
75039;BME280;63609;49.992;14.512;2023-05-03T08:36:37;99050.28;;;12.92;35.30
75039;BME280;63609;49.992;14.512;2023-05-03T08:39:05;99057.06;;;12.77;34.31
75039;BME280;63609;49.992;14.512;2023-05-03T08:41:32;99048.19;;;12.76;34.10
75039;BME280;63609;49.992;14.512;2023-05-03T08:44:00;99054.63;;;12.64;35.45
75039;BME280;63609;49.992;14.512;2023-05-03T08:46:29;99060.28;;;13.29;33.90
75039;BME280;63609;49.992;14.512;2023-05-03T08:48:58;99059.00;;;12.65;34.07
75039;BME280;63609;49.992;14.512;2023-05-03T08:51:26;99062.81;;;12.43;36.44
75039;BME280;63609;49.992;14.512;2023-05-03T08:53:55;99059.28;;;12.43;34.37
75039;BME280;63609;49.992;14.512;2023-05-03T08:56:50;99063.53;;;12.45;34.44
75039;BME280;63609;49.992;14.512;2023-05-03T08:59:18;99062.69;;;12.64;34.16
75039;BME280;63609;49.992;14.512;2023-05-03T09:01:44;99053.03;;;12.23;36.10
75039;BME280;63609;49.992;14.512;2023-05-03T09:04:11;99060.53;;;11.58;36.27
75039;BME280;63609;49.992;14.512;2023-05-03T09:06:39;99056.53;;;12.14;36.54
75039;BME280;63609;49.992;14.512;2023-05-03T09:09:07;99060.13;;;11.93;36.14
75039;BME280;63609;49.992;14.512;2023-05-03T09:11:36;99058.72;;;12.49;35.55
75039;BME280;63609;49.992;14.512;2023-05-03T09:14:11;99054.78;;;12.63;36.34
75039;BME280;63609;49.992;14.512;2023-05-03T09:16:40;99056.19;;;12.57;36.95
75039;BME280;63609;49.992;14.512;2023-05-03T09:19:08;99069.19;;;12.90;36.25
75039;BME280;63609;49.992;14.512;2023-05-03T09:21:39;99067.06;;;12.94;35.92
75039;BME280;63609;49.992;14.512;2023-05-03T09:24:20;99056.91;;;12.59;35.86
75039;BME280;63609;49.992;14.512;2023-05-03T09:26:49;99058.03;;;13.14;34.80
75039;BME280;63609;49.992;14.512;2023-05-03T09:29:37;99053.50;;;12.96;35.73
75039;BME280;63609;49.992;14.512;2023-05-03T09:32:05;99058.91;;;12.76;36.32
75039;BME280;63609;49.992;14.512;2023-05-03T09:34:34;99052.94;;;12.73;35.92
75039;BME280;63609;49.992;14.512;2023-05-03T09:37:01;99049.56;;;13.09;34.69
75039;BME280;63609;49.992;14.512;2023-05-03T09:39:28;99056.34;;;12.65;35.86
75039;BME280;63609;49.992;14.512;2023-05-03T09:41:56;99049.25;;;13.32;35.56
75039;BME280;63609;49.992;14.512;2023-05-03T09:47:07;99048.88;;;13.07;35.40
75039;BME280;63609;49.992;14.512;2023-05-03T09:49:34;99057.75;;;12.69;37.44
75039;BME280;63609;49.992;14.512;2023-05-03T09:52:03;99048.59;;;13.20;34.81
75039;BME280;63609;49.992;14.512;2023-05-03T09:54:30;99045.75;;;13.68;34.80
75039;BME280;63609;49.992;14.512;2023-05-03T09:56:58;99040.00;;;14.45;33.39
75039;BME280;63609;49.992;14.512;2023-05-03T09:59:29;99042.75;;;14.36;33.54
75039;BME280;63609;49.992;14.512;2023-05-03T10:01:58;99049.41;;;12.72;34.49
75039;BME280;63609;49.992;14.512;2023-05-03T10:04:34;99037.25;;;14.00;33.64
75039;BME280;63609;49.992;14.512;2023-05-03T10:07:07;99035.09;;;15.12;33.06
75039;BME280;63609;49.992;14.512;2023-05-03T10:09:41;99035.88;;;15.04;31.31
75039;BME280;63609;49.992;14.512;2023-05-03T10:12:15;99034.88;;;15.05;32.48
75039;BME280;63609;49.992;14.512;2023-05-03T10:14:46;99034.94;;;14.60;32.62
75039;BME280;63609;49.992;14.512;2023-05-03T10:17:20;99030.03;;;14.73;32.30
75039;BME280;63609;49.992;14.512;2023-05-03T10:20:40;99026.53;;;15.68;30.87
75039;BME280;63609;49.992;14.512;2023-05-03T10:23:10;99021.19;;;16.11;29.45
75039;BME280;63609;49.992;14.512;2023-05-03T10:25:39;99020.09;;;15.95;31.40
75039;BME280;63609;49.992;14.512;2023-05-03T10:28:08;99019.88;;;16.31;30.51
75039;BME280;63609;49.992;14.512;2023-05-03T10:30:36;99016.00;;;15.49;30.11
75039;BME280;63609;49.992;14.512;2023-05-03T10:35:51;99021.38;;;15.83;32.27
75039;BME280;63609;49.992;14.512;2023-05-03T10:38:27;99023.44;;;16.31;29.77
75039;BME280;63609;49.992;14.512;2023-05-03T10:40:55;99013.66;;;14.31;32.28
75039;BME280;63609;49.992;14.512;2023-05-03T10:46:02;99021.47;;;13.97;33.99
75039;BME280;63609;49.992;14.512;2023-05-03T10:48:32;99021.72;;;13.30;34.20
75039;BME280;63609;49.992;14.512;2023-05-03T10:53:56;99008.84;;;15.66;30.39
75039;BME280;63609;49.992;14.512;2023-05-03T10:56:24;99004.13;;;15.94;29.23
75039;BME280;63609;49.992;14.512;2023-05-03T10:58:54;99008.53;;;14.56;30.51
75039;BME280;63609;49.992;14.512;2023-05-03T11:01:23;99012.88;;;15.10;31.23
75039;BME280;63609;49.992;14.512;2023-05-03T11:04:04;99005.44;;;14.33;31.28
75039;BME280;63609;49.992;14.512;2023-05-03T11:06:35;99005.31;;;14.07;30.79
75039;BME280;63609;49.992;14.512;2023-05-03T11:09:04;99003.63;;;14.06;31.66
75039;BME280;63609;49.992;14.512;2023-05-03T11:11:35;99002.38;;;14.00;32.80
75039;BME280;63609;49.992;14.512;2023-05-03T11:14:02;98991.00;;;15.05;30.09
75039;BME280;63609;49.992;14.512;2023-05-03T11:16:29;99004.19;;;16.18;29.86
75039;BME280;63609;49.992;14.512;2023-05-03T11:18:58;98992.47;;;17.41;27.82
75039;BME280;63609;49.992;14.512;2023-05-03T11:21:25;98984.66;;;16.16;27.34
75039;BME280;63609;49.992;14.512;2023-05-03T11:23:53;98982.81;;;17.47;26.33
75039;BME280;63609;49.992;14.512;2023-05-03T11:26:20;98978.16;;;17.33;26.44
75039;BME280;63609;49.992;14.512;2023-05-03T11:28:52;98987.09;;;17.17;27.80
75039;BME280;63609;49.992;14.512;2023-05-03T11:31:20;98982.72;;;15.58;30.64
75039;BME280;63609;49.992;14.512;2023-05-03T11:33:49;98977.78;;;16.30;29.29
75039;BME280;63609;49.992;14.512;2023-05-03T11:36:17;98970.66;;;17.51;28.05
75039;BME280;63609;49.992;14.512;2023-05-03T11:38:44;98969.09;;;17.73;27.58
75039;BME280;63609;49.992;14.512;2023-05-03T11:41:13;98978.38;;;16.74;29.31
75039;BME280;63609;49.992;14.512;2023-05-03T11:43:45;98982.19;;;17.29;27.79
75039;BME280;63609;49.992;14.512;2023-05-03T11:46:21;98972.72;;;15.77;28.23
75039;BME280;63609;49.992;14.512;2023-05-03T11:48:49;98979.53;;;14.41;29.91
75039;BME280;63609;49.992;14.512;2023-05-03T11:51:21;98977.66;;;15.55;30.03
75039;BME280;63609;49.992;14.512;2023-05-03T11:53:50;98980.22;;;16.82;28.28
75039;BME280;63609;49.992;14.512;2023-05-03T11:56:17;98973.47;;;16.94;28.77
75039;BME280;63609;49.992;14.512;2023-05-03T12:01:18;98972.41;;;15.46;29.56
75039;BME280;63609;49.992;14.512;2023-05-03T12:03:52;98959.41;;;14.89;30.06
75039;BME280;63609;49.992;14.512;2023-05-03T12:06:20;98971.28;;;15.56;29.56
75039;BME280;63609;49.992;14.512;2023-05-03T12:08:49;98965.75;;;15.66;29.76
75039;BME280;63609;49.992;14.512;2023-05-03T12:11:17;98970.09;;;16.92;28.70
75039;BME280;63609;49.992;14.512;2023-05-03T12:14:00;98967.22;;;18.12;26.52
75039;BME280;63609;49.992;14.512;2023-05-03T12:16:45;98961.22;;;18.33;26.28
75039;BME280;63609;49.992;14.512;2023-05-03T12:19:21;98965.59;;;18.26;25.96
75039;BME280;63609;49.992;14.512;2023-05-03T12:21:52;98961.75;;;18.74;24.21
75039;BME280;63609;49.992;14.512;2023-05-03T12:24:39;98960.50;;;19.00;24.46
75039;BME280;63609;49.992;14.512;2023-05-03T12:27:10;98958.44;;;19.39;24.01
75039;BME280;63609;49.992;14.512;2023-05-03T12:29:39;98967.13;;;18.60;24.46
75039;BME280;63609;49.992;14.512;2023-05-03T12:32:07;98961.75;;;18.52;24.13
75039;BME280;63609;49.992;14.512;2023-05-03T12:34:37;98955.13;;;15.90;27.02
75039;BME280;63609;49.992;14.512;2023-05-03T12:37:07;98964.34;;;16.95;27.12
75039;BME280;63609;49.992;14.512;2023-05-03T12:39:37;98945.75;;;17.24;24.12
75039;BME280;63609;49.992;14.512;2023-05-03T12:42:07;98935.66;;;17.74;24.32
75039;BME280;63609;49.992;14.512;2023-05-03T12:44:37;98935.06;;;17.47;26.08
75039;BME280;63609;49.992;14.512;2023-05-03T12:47:11;98940.38;;;18.42;24.41
75039;BME280;63609;49.992;14.512;2023-05-03T12:49:52;98938.81;;;19.37;23.39
75039;BME280;63609;49.992;14.512;2023-05-03T12:52:20;98936.06;;;18.93;23.45
75039;BME280;63609;49.992;14.512;2023-05-03T12:55:04;98939.03;;;17.76;25.07
75039;BME280;63609;49.992;14.512;2023-05-03T12:57:37;98938.97;;;15.56;28.15
75039;BME280;63609;49.992;14.512;2023-05-03T13:02:40;98929.72;;;17.39;24.85
75039;BME280;63609;49.992;14.512;2023-05-03T13:05:32;98934.88;;;15.78;26.19
75039;BME280;63609;49.992;14.512;2023-05-03T13:08:03;98923.13;;;15.45;26.07
75039;BME280;63609;49.992;14.512;2023-05-03T13:10:39;98930.19;;;15.88;25.90
75039;BME280;63609;49.992;14.512;2023-05-03T13:13:07;98914.13;;;16.86;24.81
75039;BME280;63609;49.992;14.512;2023-05-03T13:15:38;98915.53;;;18.61;25.58
75039;BME280;63609;49.992;14.512;2023-05-03T13:18:06;98916.38;;;18.99;24.36
75039;BME280;63609;49.992;14.512;2023-05-03T13:20:34;98914.16;;;18.42;23.30
75039;BME280;63609;49.992;14.512;2023-05-03T13:23:03;98919.59;;;19.32;22.81
75039;BME280;63609;49.992;14.512;2023-05-03T13:25:30;98896.81;;;18.89;22.55
75039;BME280;63609;49.992;14.512;2023-05-03T13:27:59;98910.16;;;18.38;24.78
75039;BME280;63609;49.992;14.512;2023-05-03T13:30:27;98903.34;;;19.62;22.86
75039;BME280;63609;49.992;14.512;2023-05-03T13:32:55;98901.66;;;20.33;21.13
75039;BME280;63609;49.992;14.512;2023-05-03T13:35:22;98885.97;;;19.42;23.24
75039;BME280;63609;49.992;14.512;2023-05-03T13:37:54;98896.50;;;19.51;22.92